sensor_id;sensor_type;location;lat;lon;timestamp;temperature;humidity
53844;DHT22;39744;53.314;5.710;2023-12-29T05:01:23;9.40;99.90
53844;DHT22;39744;53.314;5.710;2023-12-29T05:03:48;9.40;99.90
53844;DHT22;39744;53.314;5.710;2023-12-29T05:06:14;9.30;99.90
53844;DHT22;39744;53.314;5.710;2023-12-29T05:08:39;9.10;99.90
53844;DHT22;39744;53.314;5.710;2023-12-29T05:11:05;9.20;99.90
53844;DHT22;39744;53.314;5.710;2023-12-29T05:13:30;9.20;99.90
53844;DHT22;39744;53.314;5.710;2023-12-29T05:15:56;9.10;99.90
53844;DHT22;39744;53.314;5.710;2023-12-29T05:18:22;9.10;99.90
53844;DHT22;39744;53.314;5.710;2023-12-29T05:20:47;9.30;99.90
53844;DHT22;39744;53.314;5.710;2023-12-29T05:23:13;9.20;99.90
53844;DHT22;39744;53.314;5.710;2023-12-29T05:25:39;9.20;99.90
53844;DHT22;39744;53.314;5.710;2023-12-29T05:28:05;9.40;99.90
53844;DHT22;39744;53.314;5.710;2023-12-29T05:30:30;9.30;99.90
53844;DHT22;39744;53.314;5.710;2023-12-29T05:32:57;9.10;99.90
53844;DHT22;39744;53.314;5.710;2023-12-29T05:35:23;9.10;99.90
53844;DHT22;39744;53.314;5.710;2023-12-29T05:37:48;9.50;99.90
53844;DHT22;39744;53.314;5.710;2023-12-29T05:40:15;9.40;99.90
53844;DHT22;39744;53.314;5.710;2023-12-29T05:42:41;9.20;99.90
53844;DHT22;39744;53.314;5.710;2023-12-29T05:45:07;9.40;99.90
53844;DHT22;39744;53.314;5.710;2023-12-29T05:47:33;9.50;99.90
53844;DHT22;39744;53.314;5.710;2023-12-29T05:50:00;9.40;99.90
53844;DHT22;39744;53.314;5.710;2023-12-29T05:52:26;9.50;99.90
53844;DHT22;39744;53.314;5.710;2023-12-29T05:54:51;9.20;99.90
53844;DHT22;39744;53.314;5.710;2023-12-29T05:57:18;9.30;99.90
53844;DHT22;39744;53.314;5.710;2023-12-29T05:59:44;9.20;99.90
53844;DHT22;39744;53.314;5.710;2023-12-29T06:02:09;9.10;99.90
53844;DHT22;39744;53.314;5.710;2023-12-29T06:04:36;9.20;99.90
53844;DHT22;39744;53.314;5.710;2023-12-29T06:07:01;9.10;99.90
53844;DHT22;39744;53.314;5.710;2023-12-29T06:09:27;9.20;99.90
53844;DHT22;39744;53.314;5.710;2023-12-29T06:11:53;9.50;99.90
53844;DHT22;39744;53.314;5.710;2023-12-29T06:14:19;9.30;99.90
53844;DHT22;39744;53.314;5.710;2023-12-29T06:16:44;9.50;99.90
53844;DHT22;39744;53.314;5.710;2023-12-29T06:19:10;9.20;99.90
53844;DHT22;39744;53.314;5.710;2023-12-29T06:21:40;9.50;99.90
53844;DHT22;39744;53.314;5.710;2023-12-29T06:24:06;9.50;99.90
53844;DHT22;39744;53.314;5.710;2023-12-29T06:26:31;9.20;99.90
53844;DHT22;39744;53.314;5.710;2023-12-29T06:28:57;9.40;99.90
53844;DHT22;39744;53.314;5.710;2023-12-29T06:31:26;9.10;99.90
53844;DHT22;39744;53.314;5.710;2023-12-29T06:33:52;9.50;99.90
53844;DHT22;39744;53.314;5.710;2023-12-29T06:36:18;9.40;99.90
53844;DHT22;39744;53.314;5.710;2023-12-29T06:38:44;9.40;99.90
53844;DHT22;39744;53.314;5.710;2023-12-29T06:41:13;9.10;99.90
53844;DHT22;39744;53.314;5.710;2023-12-29T06:43:39;9.50;99.90
53844;DHT22;39744;53.314;5.710;2023-12-29T06:46:05;9.10;99.90
53844;DHT22;39744;53.314;5.710;2023-12-29T06:48:31;9.50;99.90
53844;DHT22;39744;53.314;5.710;2023-12-29T06:50:58;9.20;99.90
53844;DHT22;39744;53.314;5.710;2023-12-29T06:53:24;9.50;99.90
53844;DHT22;39744;53.314;5.710;2023-12-29T06:55:49;9.30;99.90
53844;DHT22;39744;53.314;5.710;2023-12-29T06:58:15;9.50;99.90
53844;DHT22;39744;53.314;5.710;2023-12-29T07:00:40;9.50;99.90
53844;DHT22;39744;53.314;5.710;2023-12-29T07:03:06;9.40;99.90
53844;DHT22;39744;53.314;5.710;2023-12-29T07:05:32;9.30;99.90
53844;DHT22;39744;53.314;5.710;2023-12-29T07:07:58;9.10;99.90
53844;DHT22;39744;53.314;5.710;2023-12-29T07:10:24;9.00;99.90
53844;DHT22;39744;53.314;5.710;2023-12-29T07:12:50;9.00;99.90
53844;DHT22;39744;53.314;5.710;2023-12-29T07:15:15;9.40;99.90
53844;DHT22;39744;53.314;5.710;2023-12-29T07:17:42;9.30;99.90
53844;DHT22;39744;53.314;5.710;2023-12-29T07:20:07;9.30;99.90
53844;DHT22;39744;53.314;5.710;2023-12-29T07:22:33;9.30;99.90
53844;DHT22;39744;53.314;5.710;2023-12-29T07:24:59;8.90;99.90
53844;DHT22;39744;53.314;5.710;2023-12-29T07:27:28;9.00;99.90
53844;DHT22;39744;53.314;5.710;2023-12-29T07:30:03;8.90;99.90
53844;DHT22;39744;53.314;5.710;2023-12-29T07:32:28;9.10;99.90
53844;DHT22;39744;53.314;5.710;2023-12-29T07:34:54;9.10;99.90
53844;DHT22;39744;53.314;5.710;2023-12-29T07:37:19;9.00;99.90
53844;DHT22;39744;53.314;5.710;2023-12-29T07:39:45;9.20;99.90
53844;DHT22;39744;53.314;5.710;2023-12-29T07:42:12;9.20;99.90
53844;DHT22;39744;53.314;5.710;2023-12-29T07:44:38;8.90;99.90
53844;DHT22;39744;53.314;5.710;2023-12-29T07:47:04;8.80;99.90
53844;DHT22;39744;53.314;5.710;2023-12-29T07:49:30;9.00;99.90
53844;DHT22;39744;53.314;5.710;2023-12-29T07:51:56;9.20;99.90
53844;DHT22;39744;53.314;5.710;2023-12-29T07:54:24;9.10;99.90
53844;DHT22;39744;53.314;5.710;2023-12-29T07:56:50;8.80;99.90
53844;DHT22;39744;53.314;5.710;2023-12-29T07:59:16;9.10;99.90
53844;DHT22;39744;53.314;5.710;2023-12-29T08:01:41;8.70;99.90
53844;DHT22;39744;53.314;5.710;2023-12-29T08:04:07;8.70;99.90
53844;DHT22;39744;53.314;5.710;2023-12-29T08:06:32;8.90;99.90
53844;DHT22;39744;53.314;5.710;2023-12-29T08:08:58;8.70;99.90
53844;DHT22;39744;53.314;5.710;2023-12-29T08:11:24;8.90;99.90
53844;DHT22;39744;53.314;5.710;2023-12-29T08:13:49;8.70;99.90
53844;DHT22;39744;53.314;5.710;2023-12-29T08:16:15;8.70;99.90
53844;DHT22;39744;53.314;5.710;2023-12-29T08:18:43;9.00;99.90
53844;DHT22;39744;53.314;5.710;2023-12-29T08:21:08;8.90;99.90
53844;DHT22;39744;53.314;5.710;2023-12-29T08:23:34;9.00;99.90
53844;DHT22;39744;53.314;5.710;2023-12-29T08:26:02;9.00;99.90
53844;DHT22;39744;53.314;5.710;2023-12-29T08:28:27;9.00;99.90
53844;DHT22;39744;53.314;5.710;2023-12-29T08:30:53;9.00;99.90
53844;DHT22;39744;53.314;5.710;2023-12-29T08:33:19;8.70;99.90
53844;DHT22;39744;53.314;5.710;2023-12-29T08:35:44;9.00;99.90
53844;DHT22;39744;53.314;5.710;2023-12-29T08:38:11;8.80;99.90
53844;DHT22;39744;53.314;5.710;2023-12-29T08:40:37;8.80;99.90
53844;DHT22;39744;53.314;5.710;2023-12-29T08:43:02;8.80;99.90
53844;DHT22;39744;53.314;5.710;2023-12-29T08:45:28;9.00;99.90
53844;DHT22;39744;53.314;5.710;2023-12-29T08:47:54;9.00;99.90
53844;DHT22;39744;53.314;5.710;2023-12-29T08:50:19;9.20;99.90
53844;DHT22;39744;53.314;5.710;2023-12-29T08:52:45;8.80;99.90
53844;DHT22;39744;53.314;5.710;2023-12-29T08:55:11;8.70;99.90
53844;DHT22;39744;53.314;5.710;2023-12-29T08:57:36;8.90;99.90
53844;DHT22;39744;53.314;5.710;2023-12-29T09:00:02;8.70;99.90
53844;DHT22;39744;53.314;5.710;2023-12-29T09:02:28;9.00;99.90
53844;DHT22;39744;53.314;5.710;2023-12-29T09:04:53;9.00;99.90
53844;DHT22;39744;53.314;5.710;2023-12-29T09:07:19;9.10;99.90
53844;DHT22;39744;53.314;5.710;2023-12-29T09:09:44;8.90;99.90
53844;DHT22;39744;53.314;5.710;2023-12-29T09:12:10;9.00;99.90
53844;DHT22;39744;53.314;5.710;2023-12-29T09:14:35;8.90;99.90
53844;DHT22;39744;53.314;5.710;2023-12-29T09:17:01;9.10;99.90
53844;DHT22;39744;53.314;5.710;2023-12-29T09:19:27;9.10;99.90
53844;DHT22;39744;53.314;5.710;2023-12-29T09:21:53;8.90;99.90
53844;DHT22;39744;53.314;5.710;2023-12-29T09:24:18;9.00;99.90
53844;DHT22;39744;53.314;5.710;2023-12-29T09:26:44;9.20;99.90
53844;DHT22;39744;53.314;5.710;2023-12-29T09:29:09;9.00;99.90
53844;DHT22;39744;53.314;5.710;2023-12-29T09:31:35;9.00;99.90
53844;DHT22;39744;53.314;5.710;2023-12-29T09:34:01;9.00;99.90
53844;DHT22;39744;53.314;5.710;2023-12-29T09:36:27;8.80;99.90
53844;DHT22;39744;53.314;5.710;2023-12-29T09:38:53;8.90;99.90
53844;DHT22;39744;53.314;5.710;2023-12-29T09:41:18;9.20;99.90
53844;DHT22;39744;53.314;5.710;2023-12-29T09:43:46;8.70;99.90
53844;DHT22;39744;53.314;5.710;2023-12-29T09:46:13;8.80;99.90
53844;DHT22;39744;53.314;5.710;2023-12-29T09:48:40;8.80;99.90
53844;DHT22;39744;53.314;5.710;2023-12-29T09:51:08;9.00;99.90
53844;DHT22;39744;53.314;5.710;2023-12-29T09:53:35;8.80;99.90
53844;DHT22;39744;53.314;5.710;2023-12-29T09:56:02;8.90;99.90
53844;DHT22;39744;53.314;5.710;2023-12-29T09:58:28;8.70;99.90
53844;DHT22;39744;53.314;5.710;2023-12-29T10:00:54;8.80;99.90
53844;DHT22;39744;53.314;5.710;2023-12-29T10:03:20;8.80;99.90
53844;DHT22;39744;53.314;5.710;2023-12-29T10:05:47;9.20;99.90
53844;DHT22;39744;53.314;5.710;2023-12-29T10:08:15;8.90;99.90
53844;DHT22;39744;53.314;5.710;2023-12-29T10:10:40;8.80;99.90
53844;DHT22;39744;53.314;5.710;2023-12-29T10:13:07;8.80;99.90
53844;DHT22;39744;53.314;5.710;2023-12-29T10:15:37;8.80;99.90
53844;DHT22;39744;53.314;5.710;2023-12-29T10:18:07;8.80;99.90
53844;DHT22;39744;53.314;5.710;2023-12-29T10:23:20;8.80;99.90
53844;DHT22;39744;53.314;5.710;2023-12-29T10:25:46;8.90;99.90
53844;DHT22;39744;53.314;5.710;2023-12-29T10:28:12;8.70;99.90
53844;DHT22;39744;53.314;5.710;2023-12-29T10:30:38;8.90;99.90
53844;DHT22;39744;53.314;5.710;2023-12-29T10:33:04;8.90;99.90
53844;DHT22;39744;53.314;5.710;2023-12-29T10:35:30;9.10;99.90
53844;DHT22;39744;53.314;5.710;2023-12-29T10:38:08;8.90;99.90
53844;DHT22;39744;53.314;5.710;2023-12-29T10:40:35;8.90;99.90
53844;DHT22;39744;53.314;5.710;2023-12-29T10:43:00;9.10;99.90
53844;DHT22;39744;53.314;5.710;2023-12-29T10:45:32;8.90;99.90
53844;DHT22;39744;53.314;5.710;2023-12-29T10:47:59;9.10;99.90
53844;DHT22;39744;53.314;5.710;2023-12-29T10:50:25;9.10;99.90
53844;DHT22;39744;53.314;5.710;2023-12-29T10:53:10;8.90;99.90
53844;DHT22;39744;53.314;5.710;2023-12-29T10:55:35;8.90;99.90
53844;DHT22;39744;53.314;5.710;2023-12-29T10:58:01;8.90;99.90
53844;DHT22;39744;53.314;5.710;2023-12-29T11:00:30;9.00;99.90
53844;DHT22;39744;53.314;5.710;2023-12-29T11:02:56;8.90;99.90
53844;DHT22;39744;53.314;5.710;2023-12-29T11:05:25;8.80;99.90
53844;DHT22;39744;53.314;5.710;2023-12-29T11:07:51;8.90;99.90
53844;DHT22;39744;53.314;5.710;2023-12-29T11:10:20;9.00;99.90
53844;DHT22;39744;53.314;5.710;2023-12-29T11:12:45;9.00;99.90
53844;DHT22;39744;53.314;5.710;2023-12-29T11:15:12;8.90;99.90
53844;DHT22;39744;53.314;5.710;2023-12-29T11:17:38;9.00;99.90
53844;DHT22;39744;53.314;5.710;2023-12-29T11:20:06;8.90;99.90
53844;DHT22;39744;53.314;5.710;2023-12-29T11:22:32;8.90;99.90
53844;DHT22;39744;53.314;5.710;2023-12-29T11:24:58;8.90;99.90
53844;DHT22;39744;53.314;5.710;2023-12-29T11:27:27;9.00;99.90
53844;DHT22;39744;53.314;5.710;2023-12-29T11:29:54;9.00;99.90
53844;DHT22;39744;53.314;5.710;2023-12-29T11:32:20;8.90;99.90
53844;DHT22;39744;53.314;5.710;2023-12-29T11:34:52;8.80;99.90
53844;DHT22;39744;53.314;5.710;2023-12-29T11:42:31;8.90;99.90
53844;DHT22;39744;53.314;5.710;2023-12-29T11:45:00;9.00;99.90
53844;DHT22;39744;53.314;5.710;2023-12-29T11:47:43;9.00;99.90
53844;DHT22;39744;53.314;5.710;2023-12-29T11:50:09;8.90;99.90
53844;DHT22;39744;53.314;5.710;2023-12-29T11:52:36;9.00;99.90
53844;DHT22;39744;53.314;5.710;2023-12-29T11:57:33;9.10;99.90
53844;DHT22;39744;53.314;5.710;2023-12-29T11:59:59;9.10;99.90
53844;DHT22;39744;53.314;5.710;2023-12-29T12:02:27;9.20;99.90
53844;DHT22;39744;53.314;5.710;2023-12-29T12:04:54;9.40;99.90
53844;DHT22;39744;53.314;5.710;2023-12-29T12:09:48;9.20;99.90
53844;DHT22;39744;53.314;5.710;2023-12-29T12:12:38;9.20;99.90
53844;DHT22;39744;53.314;5.710;2023-12-29T12:15:04;9.30;99.90
53844;DHT22;39744;53.314;5.710;2023-12-29T12:17:50;9.20;99.90
53844;DHT22;39744;53.314;5.710;2023-12-29T12:20:15;9.00;99.90
53844;DHT22;39744;53.314;5.710;2023-12-29T12:22:41;8.70;99.90
53844;DHT22;39744;53.314;5.710;2023-12-29T12:25:09;8.60;99.90
53844;DHT22;39744;53.314;5.710;2023-12-29T12:27:37;8.70;99.90
53844;DHT22;39744;53.314;5.710;2023-12-29T12:30:03;8.70;99.90
53844;DHT22;39744;53.314;5.710;2023-12-29T12:32:29;8.60;99.90
53844;DHT22;39744;53.314;5.710;2023-12-29T12:34:55;8.70;99.90
53844;DHT22;39744;53.314;5.710;2023-12-29T12:37:29;8.60;99.90
53844;DHT22;39744;53.314;5.710;2023-12-29T12:39:55;8.50;99.90
53844;DHT22;39744;53.314;5.710;2023-12-29T12:42:21;8.60;99.90
53844;DHT22;39744;53.314;5.710;2023-12-29T12:44:47;8.70;99.90
53844;DHT22;39744;53.314;5.710;2023-12-29T12:47:17;8.70;99.90
53844;DHT22;39744;53.314;5.710;2023-12-29T12:49:43;8.60;99.90
53844;DHT22;39744;53.314;5.710;2023-12-29T12:52:09;8.70;99.90
53844;DHT22;39744;53.314;5.710;2023-12-29T12:54:34;8.70;99.90
53844;DHT22;39744;53.314;5.710;2023-12-29T12:57:00;8.70;99.90
53844;DHT22;39744;53.314;5.710;2023-12-29T12:59:26;8.70;99.90
53844;DHT22;39744;53.314;5.710;2023-12-29T13:01:52;8.50;99.90
53844;DHT22;39744;53.314;5.710;2023-12-29T13:04:18;8.70;99.90
53844;DHT22;39744;53.314;5.710;2023-12-29T13:06:43;8.50;99.90
53844;DHT22;39744;53.314;5.710;2023-12-29T13:09:09;8.50;99.90
53844;DHT22;39744;53.314;5.710;2023-12-29T13:11:37;8.50;99.90
53844;DHT22;39744;53.314;5.710;2023-12-29T13:14:03;8.80;99.90
53844;DHT22;39744;53.314;5.710;2023-12-29T13:16:36;8.60;99.90
53844;DHT22;39744;53.314;5.710;2023-12-29T13:19:22;8.40;99.90
53844;DHT22;39744;53.314;5.710;2023-12-29T13:21:52;8.70;99.90
53844;DHT22;39744;53.314;5.710;2023-12-29T13:24:21;8.40;99.90
53844;DHT22;39744;53.314;5.710;2023-12-29T13:26:47;8.60;99.90
53844;DHT22;39744;53.314;5.710;2023-12-29T13:29:21;8.40;99.90
53844;DHT22;39744;53.314;5.710;2023-12-29T13:31:50;8.70;99.90
53844;DHT22;39744;53.314;5.710;2023-12-29T13:34:19;8.60;99.90
53844;DHT22;39744;53.314;5.710;2023-12-29T13:39:23;8.50;99.90
53844;DHT22;39744;53.314;5.710;2023-12-29T13:41:52;8.60;99.90
53844;DHT22;39744;53.314;5.710;2023-12-29T13:44:18;8.70;99.90
53844;DHT22;39744;53.314;5.710;2023-12-29T13:46:45;8.50;99.90
53844;DHT22;39744;53.314;5.710;2023-12-29T13:49:11;8.40;99.90
53844;DHT22;39744;53.314;5.710;2023-12-29T13:51:36;8.70;99.90
53844;DHT22;39744;53.314;5.710;2023-12-29T13:54:02;8.70;99.90
53844;DHT22;39744;53.314;5.710;2023-12-29T13:56:28;8.40;99.90
53844;DHT22;39744;53.314;5.710;2023-12-29T13:58:54;8.50;99.90
53844;DHT22;39744;53.314;5.710;2023-12-29T14:01:20;8.50;99.90
53844;DHT22;39744;53.314;5.710;2023-12-29T14:03:46;8.50;99.90
53844;DHT22;39744;53.314;5.710;2023-12-29T14:06:18;8.60;99.90
53844;DHT22;39744;53.314;5.710;2023-12-29T14:08:45;8.70;99.90
53844;DHT22;39744;53.314;5.710;2023-12-29T14:11:11;8.50;99.90
53844;DHT22;39744;53.314;5.710;2023-12-29T14:13:46;8.70;99.90
53844;DHT22;39744;53.314;5.710;2023-12-29T14:16:15;8.60;99.90
53844;DHT22;39744;53.314;5.710;2023-12-29T14:21:20;8.30;99.90
53844;DHT22;39744;53.314;5.710;2023-12-29T14:24:05;8.40;99.90
53844;DHT22;39744;53.314;5.710;2023-12-29T14:26:31;8.50;99.90
53844;DHT22;39744;53.314;5.710;2023-12-29T14:29:05;8.20;99.90
53844;DHT22;39744;53.314;5.710;2023-12-29T14:31:31;8.40;99.90
53844;DHT22;39744;53.314;5.710;2023-12-29T14:33:58;8.20;99.90
53844;DHT22;39744;53.314;5.710;2023-12-29T14:36:24;8.40;99.90
53844;DHT22;39744;53.314;5.710;2023-12-29T14:38:50;8.20;99.90
53844;DHT22;39744;53.314;5.710;2023-12-29T14:41:16;8.10;99.90
53844;DHT22;39744;53.314;5.710;2023-12-29T14:43:42;8.30;99.90
53844;DHT22;39744;53.314;5.710;2023-12-29T14:46:08;8.40;99.90
53844;DHT22;39744;53.314;5.710;2023-12-29T14:48:34;8.10;99.90
53844;DHT22;39744;53.314;5.710;2023-12-29T14:51:00;8.10;99.90
53844;DHT22;39744;53.314;5.710;2023-12-29T14:53:26;8.30;99.90
53844;DHT22;39744;53.314;5.710;2023-12-29T14:55:52;8.20;99.90
53844;DHT22;39744;53.314;5.710;2023-12-29T14:58:17;8.10;99.90
53844;DHT22;39744;53.314;5.710;2023-12-29T15:00:44;8.00;99.90
53844;DHT22;39744;53.314;5.710;2023-12-29T15:03:11;8.10;99.90
53844;DHT22;39744;53.314;5.710;2023-12-29T15:05:37;8.10;99.90
53844;DHT22;39744;53.314;5.710;2023-12-29T15:08:03;8.30;99.90
53844;DHT22;39744;53.314;5.710;2023-12-29T15:10:29;8.00;99.90
53844;DHT22;39744;53.314;5.710;2023-12-29T15:12:54;8.00;99.90
53844;DHT22;39744;53.314;5.710;2023-12-29T15:15:21;8.20;99.90
53844;DHT22;39744;53.314;5.710;2023-12-29T15:17:47;8.10;99.90
53844;DHT22;39744;53.314;5.710;2023-12-29T15:20:13;8.20;99.90
53844;DHT22;39744;53.314;5.710;2023-12-29T15:22:38;8.10;99.90
53844;DHT22;39744;53.314;5.710;2023-12-29T15:25:05;8.20;99.90
53844;DHT22;39744;53.314;5.710;2023-12-29T15:27:30;8.10;99.90
53844;DHT22;39744;53.314;5.710;2023-12-29T15:29:56;8.10;99.90
53844;DHT22;39744;53.314;5.710;2023-12-29T15:32:22;8.20;99.90
53844;DHT22;39744;53.314;5.710;2023-12-29T15:34:47;8.20;99.90
53844;DHT22;39744;53.314;5.710;2023-12-29T15:37:13;8.20;99.90
53844;DHT22;39744;53.314;5.710;2023-12-29T15:39:40;8.20;99.90
53844;DHT22;39744;53.314;5.710;2023-12-29T15:42:06;8.20;99.90
53844;DHT22;39744;53.314;5.710;2023-12-29T15:44:31;8.00;99.90
53844;DHT22;39744;53.314;5.710;2023-12-29T15:46:58;8.20;99.90
53844;DHT22;39744;53.314;5.710;2023-12-29T15:49:25;8.00;99.90
53844;DHT22;39744;53.314;5.710;2023-12-29T15:51:50;8.30;99.90
53844;DHT22;39744;53.314;5.710;2023-12-29T15:54:16;8.20;99.90
53844;DHT22;39744;53.314;5.710;2023-12-29T15:56:41;8.20;99.90
53844;DHT22;39744;53.314;5.710;2023-12-29T15:59:07;8.20;99.90
53844;DHT22;39744;53.314;5.710;2023-12-29T16:01:32;8.30;99.90
53844;DHT22;39744;53.314;5.710;2023-12-29T16:04:00;8.00;99.90
53844;DHT22;39744;53.314;5.710;2023-12-29T16:06:26;8.10;99.90
53844;DHT22;39744;53.314;5.710;2023-12-29T16:08:52;8.10;99.90
53844;DHT22;39744;53.314;5.710;2023-12-29T16:11:22;8.20;99.90
53844;DHT22;39744;53.314;5.710;2023-12-29T16:13:48;8.30;99.90
53844;DHT22;39744;53.314;5.710;2023-12-29T16:16:14;8.30;99.90
53844;DHT22;39744;53.314;5.710;2023-12-29T16:18:40;8.10;99.90
53844;DHT22;39744;53.314;5.710;2023-12-29T16:21:06;8.30;99.90
53844;DHT22;39744;53.314;5.710;2023-12-29T16:23:32;8.00;99.90
53844;DHT22;39744;53.314;5.710;2023-12-29T16:25:57;8.20;99.90
53844;DHT22;39744;53.314;5.710;2023-12-29T16:28:24;8.20;99.90
53844;DHT22;39744;53.314;5.710;2023-12-29T16:30:49;8.20;99.90
53844;DHT22;39744;53.314;5.710;2023-12-29T16:33:15;8.10;99.90
53844;DHT22;39744;53.314;5.710;2023-12-29T16:35:41;8.20;99.90
53844;DHT22;39744;53.314;5.710;2023-12-29T16:38:07;8.10;99.90
53844;DHT22;39744;53.314;5.710;2023-12-29T16:40:33;8.10;99.90
53844;DHT22;39744;53.314;5.710;2023-12-29T16:43:00;8.10;99.90
53844;DHT22;39744;53.314;5.710;2023-12-29T16:45:26;7.90;99.90
53844;DHT22;39744;53.314;5.710;2023-12-29T16:47:53;8.20;99.90
53844;DHT22;39744;53.314;5.710;2023-12-29T16:50:18;8.10;99.90
53844;DHT22;39744;53.314;5.710;2023-12-29T16:52:45;7.90;99.90
53844;DHT22;39744;53.314;5.710;2023-12-29T16:55:10;7.90;99.90
53844;DHT22;39744;53.314;5.710;2023-12-29T16:57:36;7.90;99.90
53844;DHT22;39744;53.314;5.710;2023-12-29T17:00:02;8.00;99.90
53844;DHT22;39744;53.314;5.710;2023-12-29T17:02:28;7.80;99.90
53844;DHT22;39744;53.314;5.710;2023-12-29T17:04:54;7.70;99.90
53844;DHT22;39744;53.314;5.710;2023-12-29T17:07:21;7.80;99.90
53844;DHT22;39744;53.314;5.710;2023-12-29T17:09:46;8.10;99.90
53844;DHT22;39744;53.314;5.710;2023-12-29T17:12:12;8.00;99.90
53844;DHT22;39744;53.314;5.710;2023-12-29T17:14:38;7.90;99.90
53844;DHT22;39744;53.314;5.710;2023-12-29T17:17:04;7.80;99.90
53844;DHT22;39744;53.314;5.710;2023-12-29T17:19:29;8.00;99.90
53844;DHT22;39744;53.314;5.710;2023-12-29T17:21:56;7.90;99.90
53844;DHT22;39744;53.314;5.710;2023-12-29T17:24:23;7.90;99.90
53844;DHT22;39744;53.314;5.710;2023-12-29T17:26:48;7.80;99.90
53844;DHT22;39744;53.314;5.710;2023-12-29T17:29:14;7.90;99.90
53844;DHT22;39744;53.314;5.710;2023-12-29T17:31:41;7.90;99.90
53844;DHT22;39744;53.314;5.710;2023-12-29T17:34:06;7.70;99.90
53844;DHT22;39744;53.314;5.710;2023-12-29T17:36:32;7.60;99.90
53844;DHT22;39744;53.314;5.710;2023-12-29T17:38:59;7.80;99.90
53844;DHT22;39744;53.314;5.710;2023-12-29T17:41:24;7.70;99.90
53844;DHT22;39744;53.314;5.710;2023-12-29T17:43:52;7.80;99.90
53844;DHT22;39744;53.314;5.710;2023-12-29T17:46:18;7.50;99.90
53844;DHT22;39744;53.314;5.710;2023-12-29T17:48:43;7.70;99.90
53844;DHT22;39744;53.314;5.710;2023-12-29T17:51:09;7.80;99.90
53844;DHT22;39744;53.314;5.710;2023-12-29T17:53:36;7.70;99.90
53844;DHT22;39744;53.314;5.710;2023-12-29T17:56:04;7.60;99.90
53844;DHT22;39744;53.314;5.710;2023-12-29T17:58:30;7.60;99.90
53844;DHT22;39744;53.314;5.710;2023-12-29T18:00:56;7.60;99.90
53844;DHT22;39744;53.314;5.710;2023-12-29T18:03:22;7.50;99.90
53844;DHT22;39744;53.314;5.710;2023-12-29T18:05:47;7.80;99.90
53844;DHT22;39744;53.314;5.710;2023-12-29T18:08:19;7.60;99.90
53844;DHT22;39744;53.314;5.710;2023-12-29T18:10:47;7.70;99.90
53844;DHT22;39744;53.314;5.710;2023-12-29T18:13:14;7.80;99.90
53844;DHT22;39744;53.314;5.710;2023-12-29T18:15:44;7.40;99.90
53844;DHT22;39744;53.314;5.710;2023-12-29T18:18:09;7.60;99.90
53844;DHT22;39744;53.314;5.710;2023-12-29T18:20:36;7.30;99.90
53844;DHT22;39744;53.314;5.710;2023-12-29T18:23:01;7.60;99.90
53844;DHT22;39744;53.314;5.710;2023-12-29T18:25:27;7.30;99.90
53844;DHT22;39744;53.314;5.710;2023-12-29T18:27:55;7.60;99.90
53844;DHT22;39744;53.314;5.710;2023-12-29T18:30:21;7.10;99.90
53844;DHT22;39744;53.314;5.710;2023-12-29T18:32:47;7.30;99.90
53844;DHT22;39744;53.314;5.710;2023-12-29T18:35:13;7.50;99.90
53844;DHT22;39744;53.314;5.710;2023-12-29T18:37:39;7.20;99.90
53844;DHT22;39744;53.314;5.710;2023-12-29T18:40:05;7.10;99.90
53844;DHT22;39744;53.314;5.710;2023-12-29T18:42:31;7.30;99.90
53844;DHT22;39744;53.314;5.710;2023-12-29T18:44:58;7.30;99.90
53844;DHT22;39744;53.314;5.710;2023-12-29T18:47:24;7.30;99.90
53844;DHT22;39744;53.314;5.710;2023-12-29T18:49:50;7.20;99.90
53844;DHT22;39744;53.314;5.710;2023-12-29T18:52:16;7.20;99.90
53844;DHT22;39744;53.314;5.710;2023-12-29T18:54:41;7.60;99.90
53844;DHT22;39744;53.314;5.710;2023-12-29T18:57:10;7.30;99.90
53844;DHT22;39744;53.314;5.710;2023-12-29T18:59:36;7.50;99.90
53844;DHT22;39744;53.314;5.710;2023-12-29T19:02:02;7.30;99.90
53844;DHT22;39744;53.314;5.710;2023-12-29T19:04:29;7.30;99.90
53844;DHT22;39744;53.314;5.710;2023-12-29T19:06:56;7.50;99.90
53844;DHT22;39744;53.314;5.710;2023-12-29T19:09:21;7.90;99.90
53844;DHT22;39744;53.314;5.710;2023-12-29T19:11:47;7.40;99.90
53844;DHT22;39744;53.314;5.710;2023-12-29T19:14:13;7.50;99.90
53844;DHT22;39744;53.314;5.710;2023-12-29T19:16:41;7.70;99.90
53844;DHT22;39744;53.314;5.710;2023-12-29T19:19:06;7.80;99.90
53844;DHT22;39744;53.314;5.710;2023-12-29T19:21:32;7.70;99.90
53844;DHT22;39744;53.314;5.710;2023-12-29T19:23:59;7.50;99.90
53844;DHT22;39744;53.314;5.710;2023-12-29T19:26:26;7.40;99.90
53844;DHT22;39744;53.314;5.710;2023-12-29T19:28:51;7.60;99.90
53844;DHT22;39744;53.314;5.710;2023-12-29T19:31:18;7.60;99.90
53844;DHT22;39744;53.314;5.710;2023-12-29T19:33:45;7.70;99.90
53844;DHT22;39744;53.314;5.710;2023-12-29T19:36:11;7.60;99.90
53844;DHT22;39744;53.314;5.710;2023-12-29T19:38:44;7.40;99.90
53844;DHT22;39744;53.314;5.710;2023-12-29T19:41:15;7.40;99.90
53844;DHT22;39744;53.314;5.710;2023-12-29T19:43:42;7.30;99.90
53844;DHT22;39744;53.314;5.710;2023-12-29T19:46:08;7.80;99.90
53844;DHT22;39744;53.314;5.710;2023-12-29T19:48:34;7.80;99.90
53844;DHT22;39744;53.314;5.710;2023-12-29T19:51:00;7.60;99.90
53844;DHT22;39744;53.314;5.710;2023-12-29T19:53:25;7.90;99.90
53844;DHT22;39744;53.314;5.710;2023-12-29T19:55:53;7.60;99.90
53844;DHT22;39744;53.314;5.710;2023-12-29T19:58:18;7.90;99.90
53844;DHT22;39744;53.314;5.710;2023-12-29T20:00:44;7.80;99.90
53844;DHT22;39744;53.314;5.710;2023-12-29T20:03:11;7.90;99.90
53844;DHT22;39744;53.314;5.710;2023-12-29T20:05:37;7.80;99.90
53844;DHT22;39744;53.314;5.710;2023-12-29T20:08:06;7.60;99.90
53844;DHT22;39744;53.314;5.710;2023-12-29T20:10:33;7.80;99.90
53844;DHT22;39744;53.314;5.710;2023-12-29T20:12:58;7.60;99.90
53844;DHT22;39744;53.314;5.710;2023-12-29T20:15:24;7.70;99.90
53844;DHT22;39744;53.314;5.710;2023-12-29T20:17:50;8.00;99.90
53844;DHT22;39744;53.314;5.710;2023-12-29T20:20:16;8.00;99.90
53844;DHT22;39744;53.314;5.710;2023-12-29T20:22:42;8.10;99.90
53844;DHT22;39744;53.314;5.710;2023-12-29T20:25:09;7.80;99.90
53844;DHT22;39744;53.314;5.710;2023-12-29T20:27:35;8.10;99.90
53844;DHT22;39744;53.314;5.710;2023-12-29T20:30:01;7.70;99.90
53844;DHT22;39744;53.314;5.710;2023-12-29T20:32:30;7.80;99.90
53844;DHT22;39744;53.314;5.710;2023-12-29T20:34:56;8.10;99.90
53844;DHT22;39744;53.314;5.710;2023-12-29T20:37:21;7.90;99.90
53844;DHT22;39744;53.314;5.710;2023-12-29T20:39:47;8.10;99.90
53844;DHT22;39744;53.314;5.710;2023-12-29T20:42:14;8.00;99.90
53844;DHT22;39744;53.314;5.710;2023-12-29T20:44:39;7.40;99.90
53844;DHT22;39744;53.314;5.710;2023-12-29T20:47:05;7.40;99.90
53844;DHT22;39744;53.314;5.710;2023-12-29T20:49:31;7.30;99.90
53844;DHT22;39744;53.314;5.710;2023-12-29T20:51:58;7.30;99.90
53844;DHT22;39744;53.314;5.710;2023-12-29T20:54:23;7.30;99.90
53844;DHT22;39744;53.314;5.710;2023-12-29T20:56:49;7.90;99.90
53844;DHT22;39744;53.314;5.710;2023-12-29T20:59:15;7.40;99.90